createdAt,value
2018-02-27T00:02:05.979Z,35.45
2018-02-27T00:04:33.410Z,35.65
2018-02-27T00:07:00.839Z,39.65
2018-02-27T00:09:28.284Z,34.72
2018-02-27T00:11:55.917Z,34.50
2018-02-27T00:14:23.352Z,36.72
2018-02-27T00:16:50.792Z,50.12
2018-02-27T00:19:18.240Z,41.35
2018-02-27T00:21:45.671Z,36.28
2018-02-27T00:24:13.123Z,35.25
2018-02-27T00:26:40.571Z,41.17
2018-02-27T00:29:08.024Z,43.55
2018-02-27T00:31:35.464Z,36.40
2018-02-27T00:34:02.917Z,43.75
2018-02-27T00:36:30.347Z,48.13
2018-02-27T00:38:57.775Z,38.80
2018-02-27T00:41:25.253Z,38.90
2018-02-27T00:43:52.679Z,34.70
2018-02-27T00:46:20.111Z,41.30
2018-02-27T00:48:47.558Z,47.65
2018-02-27T00:51:15.019Z,38.67
2018-02-27T00:53:42.477Z,38.00
2018-02-27T00:56:09.908Z,32.58
2018-02-27T00:58:37.348Z,44.28
2018-02-27T01:01:04.801Z,35.03
2018-02-27T01:03:32.235Z,44.22
2018-02-27T01:05:59.663Z,42.30
2018-02-27T01:08:27.111Z,38.90
2018-02-27T01:10:54.547Z,49.00
2018-02-27T01:13:22.025Z,39.25
2018-02-27T01:15:49.430Z,40.22
2018-02-27T01:18:16.877Z,38.13
2018-02-27T01:20:44.405Z,40.47
2018-02-27T01:23:11.843Z,38.22
2018-02-27T01:25:39.276Z,40.95
2018-02-27T01:28:06.724Z,48.35
2018-02-27T01:30:34.158Z,42.88
2018-02-27T01:33:01.610Z,46.75
2018-02-27T01:35:29.044Z,36.63
2018-02-27T01:37:56.491Z,40.05
2018-02-27T01:40:23.935Z,39.90
2018-02-27T01:42:51.377Z,43.25
2018-02-27T01:45:18.824Z,46.22
2018-02-27T01:47:46.263Z,39.85
2018-02-27T01:50:13.822Z,45.20
2018-02-27T01:52:41.267Z,41.42
2018-02-27T01:55:08.703Z,41.40
2018-02-27T01:57:36.148Z,40.50
2018-02-27T02:00:03.584Z,40.67
2018-02-27T02:02:31.046Z,41.88
2018-02-27T02:04:58.476Z,47.25
2018-02-27T02:07:25.907Z,48.45
2018-02-27T02:09:53.351Z,43.00
2018-02-27T02:12:20.783Z,51.28
2018-02-27T02:14:48.235Z,49.92
2018-02-27T02:17:15.674Z,42.03
2018-02-27T02:19:43.112Z,52.30
2018-02-27T02:22:10.564Z,49.50
2018-02-27T02:24:38.007Z,49.08
2018-02-27T02:27:05.454Z,48.22
2018-02-27T02:29:32.880Z,50.28
2018-02-27T02:32:00.315Z,48.40
2018-02-27T02:34:27.767Z,46.92
2018-02-27T02:36:55.198Z,41.60
2018-02-27T02:39:22.649Z,49.45
2018-02-27T02:55:20.861Z,48.75
2018-02-27T02:57:48.501Z,42.80
2018-02-27T03:00:15.979Z,44.20
2018-02-27T03:02:43.408Z,50.55
2018-02-27T03:05:10.843Z,50.35
2018-02-27T03:07:38.282Z,44.63
2018-02-27T03:10:05.727Z,45.83
2018-02-27T03:12:33.150Z,46.75
2018-02-27T03:15:00.589Z,45.70
2018-02-27T03:17:28.035Z,52.85
2018-02-27T03:19:55.475Z,48.25
2018-02-27T03:22:22.912Z,48.15
2018-02-27T03:24:50.339Z,51.88
2018-02-27T03:27:17.781Z,45.30
2018-02-27T03:29:45.264Z,48.83
2018-02-27T03:32:12.692Z,47.38
2018-02-27T03:34:40.123Z,53.78
2018-02-27T03:37:07.571Z,50.92
2018-02-27T03:39:34.995Z,48.78
2018-02-27T03:42:02.443Z,53.90
2018-02-27T03:44:29.868Z,52.55
2018-02-27T03:46:57.304Z,54.15
2018-02-27T03:49:24.748Z,43.97
2018-02-27T03:51:52.175Z,51.20
2018-02-27T03:54:19.600Z,49.65
2018-02-27T03:56:47.047Z,48.55
2018-02-27T03:59:14.475Z,47.80
2018-02-27T04:01:41.907Z,51.58
2018-02-27T04:04:09.352Z,49.25
2018-02-27T04:06:36.782Z,55.90
2018-02-27T04:09:04.220Z,41.78
2018-02-27T04:11:31.655Z,49.45
2018-02-27T04:13:59.087Z,47.35
2018-02-27T04:16:26.531Z,43.95
2018-02-27T04:18:53.968Z,49.80
2018-02-27T04:21:21.400Z,58.78
2018-02-27T04:23:48.847Z,43.92
2018-02-27T04:26:16.283Z,45.05
2018-02-27T04:28:43.725Z,61.13
2018-02-27T04:31:11.172Z,59.88
2018-02-27T04:33:38.610Z,59.42
2018-02-27T04:36:06.064Z,51.90
2018-02-27T04:38:33.496Z,44.45
2018-02-27T04:41:00.927Z,48.70
2018-02-27T04:43:28.371Z,47.28
2018-02-27T04:45:55.916Z,59.58
2018-02-27T04:48:23.395Z,49.08
2018-02-27T04:50:50.828Z,52.83
2018-02-27T04:53:18.414Z,49.55
2018-02-27T04:55:45.875Z,49.95
2018-02-27T04:58:13.310Z,48.15
2018-02-27T05:00:40.760Z,58.33
2018-02-27T05:03:08.256Z,48.05
2018-02-27T05:05:35.656Z,50.53
2018-02-27T05:08:03.098Z,59.05
2018-02-27T05:10:30.543Z,49.03
2018-02-27T05:12:57.970Z,49.33
2018-02-27T05:15:25.420Z,49.20
2018-02-27T05:17:52.924Z,50.50
2018-02-27T05:20:20.549Z,52.83
2018-02-27T05:22:48.007Z,51.10
2018-02-27T05:25:15.435Z,53.53
2018-02-27T05:27:42.862Z,58.08
2018-02-27T05:30:10.300Z,53.35
2018-02-27T05:32:37.731Z,57.85
2018-02-27T05:35:05.189Z,43.25
2018-02-27T05:37:32.619Z,54.55
2018-02-27T05:40:00.060Z,54.67
2018-02-27T05:42:27.499Z,50.90
2018-02-27T05:44:54.939Z,54.85
2018-02-27T05:47:22.387Z,52.97
2018-02-27T05:49:49.821Z,53.78
2018-02-27T05:52:17.250Z,58.80
2018-02-27T05:54:44.683Z,60.75
2018-02-27T05:57:12.123Z,50.00
2018-02-27T05:59:39.564Z,57.85
2018-02-27T06:02:07.011Z,60.15
2018-02-27T06:04:34.447Z,55.28
2018-02-27T06:07:01.895Z,62.65
2018-02-27T06:09:29.332Z,50.70
2018-02-27T06:11:56.778Z,49.00
2018-02-27T06:14:24.222Z,53.20
2018-02-27T06:16:51.668Z,46.80
2018-02-27T06:19:19.095Z,52.80
2018-02-27T06:21:46.547Z,46.08
2018-02-27T06:24:14.063Z,58.75
2018-02-27T06:26:41.517Z,50.58
2018-02-27T06:29:08.955Z,50.40
2018-02-27T06:31:36.395Z,53.95
2018-02-27T06:34:03.865Z,52.25
2018-02-27T06:36:31.309Z,54.33
2018-02-27T06:38:58.731Z,50.97
2018-02-27T06:41:26.176Z,58.55
2018-02-27T06:43:53.625Z,50.40
2018-02-27T06:46:21.054Z,50.45
2018-02-27T06:48:48.486Z,49.40
2018-02-27T06:51:15.927Z,54.20
2018-02-27T06:53:43.408Z,59.95
2018-02-27T06:56:10.848Z,51.88
2018-02-27T06:58:38.272Z,55.75
2018-02-27T07:01:05.715Z,65.93
2018-02-27T07:03:33.148Z,56.75
2018-02-27T07:06:00.579Z,55.30
2018-02-27T07:08:28.043Z,50.88
2018-02-27T07:10:55.472Z,53.28
2018-02-27T07:13:22.906Z,65.97
2018-02-27T07:15:50.352Z,52.05
2018-02-27T07:18:17.799Z,53.30
2018-02-27T07:20:45.248Z,59.33
2018-02-27T07:23:12.689Z,49.85
2018-02-27T07:25:40.124Z,58.13
2018-02-27T07:28:07.569Z,52.62
2018-02-27T07:30:35.008Z,58.45
2018-02-27T07:33:02.492Z,54.40
2018-02-27T07:35:29.927Z,59.85
2018-02-27T07:37:57.367Z,64.10
2018-02-27T07:40:24.825Z,57.30
2018-02-27T07:42:52.260Z,51.20
2018-02-27T07:45:19.703Z,60.42
2018-02-27T07:47:47.158Z,55.53
2018-02-27T07:50:14.584Z,56.55
2018-02-27T07:52:42.034Z,62.65
2018-02-27T07:55:09.477Z,66.22
2018-02-27T07:57:36.910Z,54.20
2018-02-27T08:00:04.342Z,57.33
2018-02-27T08:02:31.780Z,57.70
2018-02-27T08:04:59.436Z,58.03
2018-02-27T08:07:26.870Z,60.17
2018-02-27T08:09:54.308Z,64.03
2018-02-27T08:12:21.755Z,57.38
2018-02-27T08:14:49.183Z,60.58
2018-02-27T08:17:16.628Z,59.28
2018-02-27T08:19:44.071Z,61.55
2018-02-27T08:22:11.494Z,60.38
2018-02-27T08:24:38.946Z,62.88
2018-02-27T08:27:06.387Z,67.80
2018-02-27T08:29:33.823Z,55.95
2018-02-27T08:32:01.274Z,56.35
2018-02-27T08:34:28.712Z,59.92
2018-02-27T08:36:56.160Z,70.12
2018-02-27T08:39:23.603Z,65.30
2018-02-27T08:41:51.035Z,77.75
2018-02-27T08:44:18.478Z,68.60
2018-02-27T08:46:45.927Z,69.72
2018-02-27T08:49:13.368Z,62.67
2018-02-27T08:51:40.837Z,61.83
2018-02-27T08:54:08.263Z,56.55
2018-02-27T08:56:35.701Z,72.12
2018-02-27T08:59:03.139Z,63.70
2018-02-27T09:01:30.568Z,75.10
2018-02-27T09:03:58.015Z,67.55
2018-02-27T09:06:25.452Z,56.30
2018-02-27T09:08:52.885Z,65.72
2018-02-27T09:11:20.328Z,62.05
2018-02-27T09:13:47.762Z,67.35
2018-02-27T09:16:15.189Z,74.47
2018-02-27T09:18:42.631Z,62.33
2018-02-27T09:21:10.075Z,68.65
2018-02-27T09:23:37.508Z,64.43
2018-02-27T09:26:04.955Z,81.50
2018-02-27T09:28:32.383Z,71.55
2018-02-27T09:30:59.832Z,70.93
2018-02-27T09:33:27.285Z,69.35
2018-02-27T09:35:54.699Z,74.37
2018-02-27T09:38:22.166Z,72.87
2018-02-27T09:40:49.560Z,71.15
2018-02-27T09:43:17.028Z,71.50
2018-02-27T09:45:44.474Z,82.20
2018-02-27T09:48:11.917Z,70.93
2018-02-27T09:50:39.364Z,83.82
2018-02-27T09:53:06.791Z,72.18
2018-02-27T09:55:34.228Z,78.03
2018-02-27T09:58:01.717Z,77.25
2018-02-27T10:00:29.124Z,86.28
2018-02-27T10:02:56.567Z,71.00
2018-02-27T10:05:24.053Z,81.60
2018-02-27T10:07:51.475Z,79.70
2018-02-27T10:10:18.920Z,77.93
2018-02-27T10:12:46.368Z,90.97
2018-02-27T10:15:13.799Z,79.72
2018-02-27T10:17:41.247Z,82.50
2018-02-27T10:20:08.680Z,76.12
2018-02-27T10:22:36.105Z,89.60
2018-02-27T10:25:03.566Z,82.00
2018-02-27T10:27:31.072Z,87.07
2018-02-27T10:29:58.467Z,83.30
2018-02-27T10:32:25.895Z,77.60
2018-02-27T10:34:53.342Z,95.15
2018-02-27T10:37:20.784Z,91.22
2018-02-27T10:39:48.184Z,77.60
2018-02-27T10:42:15.676Z,87.62
2018-02-27T10:44:43.143Z,92.20
2018-02-27T10:47:10.586Z,78.37
2018-02-27T10:49:38.036Z,79.68
2018-02-27T10:52:05.484Z,90.80
2018-02-27T10:54:32.925Z,84.07
2018-02-27T10:57:00.375Z,75.93
2018-02-27T10:59:27.812Z,85.40
2018-02-27T11:01:56.222Z,84.95
2018-02-27T11:04:23.668Z,89.05
2018-02-27T11:06:51.118Z,92.50
2018-02-27T11:09:18.699Z,78.65
2018-02-27T11:11:46.135Z,79.03
2018-02-27T11:14:13.598Z,83.00
2018-02-27T11:16:41.036Z,83.45
2018-02-27T11:19:08.480Z,89.75
2018-02-27T11:21:35.928Z,85.53
2018-02-27T11:24:03.364Z,93.15
2018-02-27T11:26:30.811Z,91.63
2018-02-27T11:28:58.267Z,85.12
2018-02-27T11:31:25.710Z,96.72
2018-02-27T11:33:53.147Z,68.82
2018-02-27T11:36:20.602Z,81.53
2018-02-27T11:38:48.036Z,78.35
2018-02-27T11:41:15.480Z,80.62
2018-02-27T11:43:42.923Z,92.82
2018-02-27T11:46:10.363Z,84.05
2018-02-27T11:48:37.814Z,92.75
2018-02-27T11:51:05.238Z,82.30
2018-02-27T11:53:32.827Z,92.70
2018-02-27T11:56:00.350Z,78.80
2018-02-27T11:58:28.058Z,85.60
2018-02-27T12:00:55.492Z,75.93
2018-02-27T12:03:22.968Z,96.80
2018-02-27T12:05:50.409Z,78.30
2018-02-27T12:08:17.888Z,76.53
2018-02-27T12:10:45.312Z,82.40
2018-02-27T12:13:12.764Z,82.03
2018-02-27T12:15:40.204Z,79.57
2018-02-27T12:18:07.651Z,72.22
2018-02-27T12:20:35.088Z,79.25
2018-02-27T12:23:02.530Z,77.03
2018-02-27T12:25:29.974Z,85.18
2018-02-27T12:27:57.416Z,87.93
2018-02-27T12:30:24.854Z,84.90
2018-02-27T12:32:52.285Z,84.15
2018-02-27T12:35:19.719Z,88.10
2018-02-27T12:37:47.151Z,85.57
2018-02-27T12:40:14.604Z,85.45
2018-02-27T12:42:42.040Z,90.10
2018-02-27T12:45:09.522Z,86.87
2018-02-27T12:47:36.963Z,84.00
2018-02-27T12:50:04.400Z,82.20
2018-02-27T12:52:31.842Z,89.55
2018-02-27T12:54:59.270Z,85.18
2018-02-27T12:57:26.707Z,81.25
2018-02-27T12:59:54.160Z,82.88
2018-02-27T13:02:21.589Z,72.18
2018-02-27T13:04:49.041Z,76.62
2018-02-27T13:07:16.473Z,89.72
2018-02-27T13:09:43.930Z,84.50
2018-02-27T13:12:11.378Z,75.70
2018-02-27T13:14:38.804Z,85.75
2018-02-27T13:17:06.239Z,77.05
2018-02-27T13:19:33.680Z,89.25
2018-02-27T13:22:01.124Z,86.72
2018-02-27T13:24:28.572Z,104.12
2018-02-27T13:26:56.010Z,88.07
2018-02-27T13:29:23.444Z,90.85
2018-02-27T13:31:50.879Z,88.47
2018-02-27T13:34:18.316Z,96.25
2018-02-27T13:36:45.742Z,91.57
2018-02-27T13:39:13.193Z,97.65
2018-02-27T13:41:40.636Z,96.87
2018-02-27T13:44:08.079Z,88.05
2018-02-27T13:46:35.527Z,96.20
2018-02-27T13:49:04.119Z,82.85
2018-02-27T13:51:30.403Z,87.90
2018-02-27T13:53:57.840Z,84.72
2018-02-27T13:56:25.279Z,86.20
2018-02-27T13:58:52.728Z,90.35
2018-02-27T14:01:20.158Z,92.43
2018-02-27T14:03:47.595Z,89.68
2018-02-27T14:06:15.043Z,100.80
2018-02-27T14:08:42.486Z,90.05
2018-02-27T14:11:09.952Z,107.47
2018-02-27T14:13:37.383Z,90.72
2018-02-27T14:16:04.824Z,106.72
2018-02-27T14:18:32.276Z,103.97
2018-02-27T14:20:59.720Z,101.57
2018-02-27T14:23:27.175Z,110.72
2018-02-27T14:25:54.608Z,90.72
2018-02-27T14:28:22.047Z,85.05
2018-02-27T14:30:49.496Z,97.97
2018-02-27T14:33:16.931Z,117.20
2018-02-27T14:35:44.570Z,92.93
2018-02-27T14:38:12.031Z,101.47
2018-02-27T14:40:39.475Z,100.05
2018-02-27T14:43:06.902Z,98.50
2018-02-27T14:45:34.349Z,94.43
2018-02-27T14:48:01.790Z,100.07
2018-02-27T14:50:29.227Z,101.60
2018-02-27T14:52:56.667Z,88.65
2018-02-27T14:55:24.111Z,96.75
2018-02-27T14:57:51.577Z,98.45
2018-02-27T15:00:19.004Z,88.97
2018-02-27T15:02:46.438Z,90.95
2018-02-27T15:05:13.876Z,93.43
2018-02-27T15:07:41.330Z,89.68
2018-02-27T15:10:08.773Z,91.87
2018-02-27T15:12:36.224Z,100.40
2018-02-27T15:15:03.665Z,101.10
2018-02-27T15:17:31.104Z,90.50
2018-02-27T15:19:58.555Z,92.18
2018-02-27T15:22:25.994Z,88.20
2018-02-27T15:24:53.422Z,94.00
2018-02-27T15:27:20.888Z,90.72
2018-02-27T15:29:48.322Z,81.68
2018-02-27T15:32:15.759Z,82.37
2018-02-27T15:34:43.247Z,100.32
2018-02-27T15:37:10.688Z,82.80
2018-02-27T15:39:38.135Z,102.20
2018-02-27T15:42:05.596Z,93.90
2018-02-27T15:44:33.031Z,95.57
2018-02-27T15:47:00.485Z,92.28
2018-02-27T15:49:27.919Z,82.68
2018-02-27T15:51:55.349Z,90.80
2018-02-27T15:54:22.813Z,92.82
2018-02-27T15:56:50.248Z,93.95
2018-02-27T15:59:17.708Z,78.78
2018-02-27T16:01:45.159Z,90.70
2018-02-27T16:04:12.608Z,96.15
2018-02-27T16:06:40.106Z,96.93
2018-02-27T16:09:07.491Z,92.35
2018-02-27T16:11:34.932Z,93.35
2018-02-27T16:14:02.379Z,104.57
2018-02-27T16:16:29.820Z,99.78
2018-02-27T16:18:57.291Z,103.68
2018-02-27T16:21:24.746Z,147.13
2018-02-27T16:23:52.188Z,91.00
2018-02-27T16:26:19.624Z,89.93
2018-02-27T16:28:47.077Z,79.03
2018-02-27T16:31:14.512Z,89.20
2018-02-27T16:33:41.952Z,82.28
2018-02-27T16:36:09.400Z,86.57
2018-02-27T16:38:36.840Z,90.45
2018-02-27T16:41:04.276Z,85.15
2018-02-27T16:43:31.729Z,89.90
2018-02-27T16:45:59.172Z,92.80
2018-02-27T16:48:26.619Z,91.60
2018-02-27T16:50:54.063Z,94.95
2018-02-27T16:53:21.496Z,86.18
2018-02-27T16:55:48.952Z,100.25
2018-02-27T16:58:16.400Z,84.57
2018-02-27T17:00:43.832Z,85.22
2018-02-27T17:03:11.283Z,85.25
2018-02-27T17:05:38.737Z,97.70
2018-02-27T17:08:06.183Z,95.05
2018-02-27T17:10:33.635Z,103.25
2018-02-27T17:13:01.087Z,104.47
2018-02-27T17:15:28.510Z,94.53
2018-02-27T17:17:55.960Z,112.57
2018-02-27T17:20:23.408Z,93.50
2018-02-27T17:22:50.855Z,102.00
2018-02-27T17:25:18.296Z,99.28
2018-02-27T17:27:45.751Z,91.00
2018-02-27T17:30:13.226Z,105.22
2018-02-27T17:32:40.667Z,106.85
2018-02-27T17:35:08.128Z,98.82
2018-02-27T17:37:35.571Z,96.07
2018-02-27T17:40:03.036Z,100.15
2018-02-27T17:42:30.483Z,107.78
2018-02-27T17:44:57.949Z,103.95
2018-02-27T17:47:25.399Z,89.50
2018-02-27T17:49:52.856Z,99.10
2018-02-27T17:52:20.295Z,93.90
2018-02-27T17:54:47.745Z,103.62
2018-02-27T17:57:15.187Z,95.30
2018-02-27T17:59:42.646Z,97.95
2018-02-27T18:02:10.088Z,101.53
2018-02-27T18:04:37.529Z,100.65
2018-02-27T18:07:04.988Z,108.22
2018-02-27T18:09:32.425Z,107.68
2018-02-27T18:11:59.863Z,122.53
2018-02-27T18:14:27.316Z,112.55
2018-02-27T18:16:54.765Z,106.15
2018-02-27T18:19:22.207Z,112.37
2018-02-27T18:21:49.648Z,111.95
2018-02-27T18:24:17.112Z,95.50
2018-02-27T18:26:44.567Z,114.78
2018-02-27T18:29:12.004Z,96.35
2018-02-27T18:31:39.481Z,107.25
2018-02-27T18:34:09.308Z,101.28
2018-02-27T18:36:36.822Z,116.45
2018-02-27T18:39:04.313Z,94.20
2018-02-27T18:41:33.110Z,113.80
2018-02-27T18:44:04.470Z,110.80
2018-02-27T18:46:32.112Z,115.68
2018-02-27T18:49:00.993Z,107.53
2018-02-27T18:51:28.429Z,100.07
2018-02-27T18:53:55.880Z,100.38
2018-02-27T18:56:23.625Z,100.62
2018-02-27T18:58:54.501Z,102.43
2018-02-27T19:01:21.956Z,120.00
2018-02-27T19:03:51.279Z,107.50
2018-02-27T19:06:18.780Z,133.15
2018-02-27T19:08:46.224Z,112.40
2018-02-27T19:11:13.680Z,124.82
2018-02-27T19:13:42.406Z,108.93
2018-02-27T19:16:10.793Z,114.57
2018-02-27T19:18:39.387Z,126.57
2018-02-27T19:21:06.832Z,129.75
2018-02-27T19:23:34.283Z,119.93
2018-02-27T19:26:01.725Z,123.75
2018-02-27T19:28:29.171Z,121.10
2018-02-27T19:30:56.625Z,123.40
2018-02-27T19:33:24.079Z,117.35
2018-02-27T19:35:51.561Z,116.37
2018-02-27T19:38:19.012Z,112.57
2018-02-27T19:40:46.483Z,106.05
2018-02-27T19:43:13.928Z,105.85
2018-02-27T19:45:41.366Z,109.47
2018-02-27T19:48:08.836Z,121.15
2018-02-27T19:50:36.287Z,124.62
2018-02-27T19:53:03.728Z,121.55
2018-02-27T19:55:31.196Z,130.73
2018-02-27T19:57:58.653Z,127.38
2018-02-27T20:00:26.138Z,125.57
2018-02-27T20:02:53.660Z,129.07
2018-02-27T20:05:21.130Z,126.20
2018-02-27T20:07:48.579Z,136.98
2018-02-27T20:10:16.136Z,111.60
2018-02-27T20:12:43.741Z,149.18
2018-02-27T20:15:11.297Z,127.38
2018-02-27T20:17:44.553Z,112.57
2018-02-27T20:20:12.060Z,114.50
2018-02-27T20:22:45.589Z,119.50
2018-02-27T20:25:13.113Z,100.68
2018-02-27T20:27:40.590Z,109.45
2018-02-27T20:30:08.073Z,117.13
2018-02-27T20:32:35.661Z,122.05
2018-02-27T20:35:03.462Z,119.90
2018-02-27T20:37:31.069Z,107.53
2018-02-27T20:39:58.610Z,126.93
2018-02-27T20:42:26.081Z,129.60
2018-02-27T20:44:53.535Z,124.45
2018-02-27T20:47:20.991Z,119.82
2018-02-27T20:49:48.458Z,115.68
2018-02-27T20:52:15.917Z,131.82
2018-02-27T20:54:43.548Z,116.85
2018-02-27T20:57:11.005Z,112.40
2018-02-27T20:59:38.476Z,109.35
2018-02-27T21:02:05.965Z,112.85
2018-02-27T21:04:33.429Z,115.97
2018-02-27T21:07:00.891Z,115.78
2018-02-27T21:09:28.357Z,122.82
2018-02-27T21:11:55.811Z,130.55
2018-02-27T21:14:23.360Z,128.65
2018-02-27T21:16:50.805Z,116.15
2018-02-27T21:19:18.493Z,121.13
2018-02-27T21:21:45.952Z,133.07
2018-02-27T21:24:13.404Z,113.35
2018-02-27T21:26:40.860Z,125.15
2018-02-27T21:29:08.309Z,130.80
2018-02-27T21:31:35.883Z,125.75
2018-02-27T21:34:03.369Z,123.03
2018-02-27T21:36:30.849Z,116.70
2018-02-27T21:38:59.405Z,137.88
2018-02-27T21:41:26.868Z,119.18
2018-02-27T21:43:55.776Z,129.68
2018-02-27T21:46:23.249Z,125.87
2018-02-27T21:48:50.733Z,125.62
2018-02-27T21:51:18.180Z,136.23
2018-02-27T21:53:48.010Z,137.57
2018-02-27T21:56:15.479Z,143.00
2018-02-27T21:58:43.340Z,124.53
2018-02-27T22:01:10.798Z,137.57
2018-02-27T22:03:39.368Z,138.07
2018-02-27T22:06:06.847Z,137.98
2018-02-27T22:08:34.324Z,131.35
2018-02-27T22:11:02.491Z,132.45
2018-02-27T22:13:29.922Z,124.35
2018-02-27T22:15:57.376Z,140.07
2018-02-27T22:18:24.820Z,144.23
2018-02-27T22:20:52.385Z,136.65
2018-02-27T22:23:20.162Z,136.12
2018-02-27T22:25:48.276Z,139.43
2018-02-27T22:28:15.750Z,146.20
2018-02-27T22:30:43.197Z,139.45
2018-02-27T22:33:10.677Z,146.73
2018-02-27T22:35:38.583Z,154.63
2018-02-27T22:38:06.404Z,147.75
2018-02-27T22:40:33.878Z,148.77
2018-02-27T22:43:01.337Z,149.43
2018-02-27T22:45:28.847Z,128.40
2018-02-27T22:47:59.551Z,151.15
2018-02-27T22:50:43.221Z,140.37
2018-02-27T22:53:10.678Z,130.75
2018-02-27T22:55:38.183Z,137.50
2018-02-27T22:58:05.875Z,150.95
2018-02-27T23:00:40.457Z,142.85
2018-02-27T23:03:08.076Z,145.05
2018-02-27T23:05:35.595Z,142.18
2018-02-27T23:08:03.448Z,148.70
2018-02-27T23:10:30.971Z,146.57
2018-02-27T23:12:58.551Z,147.57
2018-02-27T23:15:25.999Z,137.57
2018-02-27T23:17:53.453Z,143.18
2018-02-27T23:20:21.094Z,148.62
2018-02-27T23:22:48.601Z,137.80
2018-02-27T23:38:42.264Z,161.65
2018-02-27T23:41:09.715Z,140.75
2018-02-27T23:43:37.159Z,159.90
2018-02-27T23:46:04.591Z,162.10
2018-02-27T23:48:32.053Z,160.10
2018-02-27T23:50:59.492Z,159.98
2018-02-27T23:53:26.918Z,184.52
2018-02-27T23:55:54.378Z,156.00
2018-02-27T23:58:21.807Z,159.75
